sensor_id;sensor_type;location;lat;lon;timestamp;P1;durP1;ratioP1;P2;durP2;ratioP2
46881;SDS011;44112;38.408;-122.974;2022-07-19T00:01:06;11.05;;;5.70;;
46881;SDS011;44112;38.408;-122.974;2022-07-19T00:03:32;9.63;;;4.95;;
46881;SDS011;44112;38.408;-122.974;2022-07-19T00:06:00;12.63;;;5.57;;
46881;SDS011;44112;38.408;-122.974;2022-07-19T00:08:26;15.65;;;5.47;;
46881;SDS011;44112;38.408;-122.974;2022-07-19T00:10:53;11.25;;;5.43;;
46881;SDS011;44112;38.408;-122.974;2022-07-19T00:13:20;9.38;;;4.88;;
46881;SDS011;44112;38.408;-122.974;2022-07-19T00:15:48;10.48;;;5.25;;
46881;SDS011;44112;38.408;-122.974;2022-07-19T00:18:14;10.15;;;4.97;;
46881;SDS011;44112;38.408;-122.974;2022-07-19T00:20:41;10.82;;;4.95;;
46881;SDS011;44112;38.408;-122.974;2022-07-19T00:23:08;10.80;;;4.97;;
46881;SDS011;44112;38.408;-122.974;2022-07-19T00:25:34;9.23;;;4.90;;
46881;SDS011;44112;38.408;-122.974;2022-07-19T00:28:01;8.77;;;4.60;;
46881;SDS011;44112;38.408;-122.974;2022-07-19T00:30:28;10.20;;;5.30;;
46881;SDS011;44112;38.408;-122.974;2022-07-19T00:32:55;12.43;;;5.40;;
46881;SDS011;44112;38.408;-122.974;2022-07-19T00:35:21;12.50;;;5.50;;
46881;SDS011;44112;38.408;-122.974;2022-07-19T00:37:49;10.27;;;5.07;;
46881;SDS011;44112;38.408;-122.974;2022-07-19T00:40:20;10.00;;;4.85;;
46881;SDS011;44112;38.408;-122.974;2022-07-19T00:42:48;9.73;;;4.93;;
46881;SDS011;44112;38.408;-122.974;2022-07-19T00:45:17;10.32;;;5.15;;
46881;SDS011;44112;38.408;-122.974;2022-07-19T00:47:45;10.85;;;5.13;;
46881;SDS011;44112;38.408;-122.974;2022-07-19T00:50:12;9.65;;;4.75;;
46881;SDS011;44112;38.408;-122.974;2022-07-19T00:52:38;11.32;;;4.90;;
46881;SDS011;44112;38.408;-122.974;2022-07-19T00:55:07;10.93;;;5.18;;
46881;SDS011;44112;38.408;-122.974;2022-07-19T00:57:36;10.15;;;4.90;;
46881;SDS011;44112;38.408;-122.974;2022-07-19T01:00:04;11.93;;;5.60;;
46881;SDS011;44112;38.408;-122.974;2022-07-19T01:02:33;11.25;;;5.47;;
46881;SDS011;44112;38.408;-122.974;2022-07-19T01:05:02;11.07;;;4.95;;
46881;SDS011;44112;38.408;-122.974;2022-07-19T01:07:29;11.77;;;5.90;;
46881;SDS011;44112;38.408;-122.974;2022-07-19T01:09:55;10.98;;;5.18;;
46881;SDS011;44112;38.408;-122.974;2022-07-19T01:12:22;9.40;;;5.18;;
46881;SDS011;44112;38.408;-122.974;2022-07-19T01:14:49;8.70;;;4.90;;
46881;SDS011;44112;38.408;-122.974;2022-07-19T01:17:21;10.85;;;5.05;;
46881;SDS011;44112;38.408;-122.974;2022-07-19T01:19:48;9.85;;;5.10;;
46881;SDS011;44112;38.408;-122.974;2022-07-19T01:22:15;9.13;;;5.07;;
46881;SDS011;44112;38.408;-122.974;2022-07-19T01:24:42;10.65;;;5.13;;
46881;SDS011;44112;38.408;-122.974;2022-07-19T01:27:09;11.50;;;5.85;;
46881;SDS011;44112;38.408;-122.974;2022-07-19T01:29:36;11.55;;;5.40;;
46881;SDS011;44112;38.408;-122.974;2022-07-19T01:32:04;10.80;;;5.75;;
46881;SDS011;44112;38.408;-122.974;2022-07-19T01:34:31;12.65;;;5.85;;
46881;SDS011;44112;38.408;-122.974;2022-07-19T01:36:59;13.85;;;5.88;;
46881;SDS011;44112;38.408;-122.974;2022-07-19T01:39:25;10.32;;;5.50;;
46881;SDS011;44112;38.408;-122.974;2022-07-19T01:41:51;10.60;;;5.30;;
46881;SDS011;44112;38.408;-122.974;2022-07-19T01:44:18;15.95;;;5.80;;
46881;SDS011;44112;38.408;-122.974;2022-07-19T01:46:44;15.70;;;5.80;;
46881;SDS011;44112;38.408;-122.974;2022-07-19T01:49:11;11.63;;;5.80;;
46881;SDS011;44112;38.408;-122.974;2022-07-19T01:51:38;14.60;;;5.85;;
46881;SDS011;44112;38.408;-122.974;2022-07-19T01:54:05;14.48;;;5.65;;
46881;SDS011;44112;38.408;-122.974;2022-07-19T01:56:32;16.33;;;6.00;;
46881;SDS011;44112;38.408;-122.974;2022-07-19T01:58:59;15.82;;;6.95;;
46881;SDS011;44112;38.408;-122.974;2022-07-19T02:01:26;12.88;;;6.25;;
46881;SDS011;44112;38.408;-122.974;2022-07-19T02:03:53;19.45;;;7.20;;
46881;SDS011;44112;38.408;-122.974;2022-07-19T02:06:19;15.07;;;6.85;;
46881;SDS011;44112;38.408;-122.974;2022-07-19T02:08:46;15.35;;;6.78;;
46881;SDS011;44112;38.408;-122.974;2022-07-19T02:11:13;16.08;;;7.45;;
46881;SDS011;44112;38.408;-122.974;2022-07-19T02:14:08;14.35;;;6.63;;
46881;SDS011;44112;38.408;-122.974;2022-07-19T02:16:35;21.38;;;7.75;;
46881;SDS011;44112;38.408;-122.974;2022-07-19T02:19:03;16.27;;;7.28;;
46881;SDS011;44112;38.408;-122.974;2022-07-19T02:21:30;18.40;;;8.02;;
46881;SDS011;44112;38.408;-122.974;2022-07-19T02:23:57;15.68;;;6.85;;
46881;SDS011;44112;38.408;-122.974;2022-07-19T02:26:24;15.85;;;6.90;;
46881;SDS011;44112;38.408;-122.974;2022-07-19T02:28:50;15.35;;;6.30;;
46881;SDS011;44112;38.408;-122.974;2022-07-19T02:31:17;16.25;;;7.00;;
46881;SDS011;44112;38.408;-122.974;2022-07-19T02:33:43;12.85;;;6.05;;
46881;SDS011;44112;38.408;-122.974;2022-07-19T02:36:10;15.75;;;6.45;;
46881;SDS011;44112;38.408;-122.974;2022-07-19T02:38:36;15.27;;;6.03;;
46881;SDS011;44112;38.408;-122.974;2022-07-19T02:41:03;12.95;;;6.70;;
46881;SDS011;44112;38.408;-122.974;2022-07-19T02:43:29;14.52;;;6.85;;
46881;SDS011;44112;38.408;-122.974;2022-07-19T02:45:56;13.23;;;5.88;;
46881;SDS011;44112;38.408;-122.974;2022-07-19T02:48:22;13.30;;;6.40;;
46881;SDS011;44112;38.408;-122.974;2022-07-19T02:50:49;14.88;;;6.60;;
46881;SDS011;44112;38.408;-122.974;2022-07-19T02:53:15;14.05;;;6.53;;
46881;SDS011;44112;38.408;-122.974;2022-07-19T02:55:42;14.15;;;6.07;;
46881;SDS011;44112;38.408;-122.974;2022-07-19T02:58:08;15.95;;;6.57;;
46881;SDS011;44112;38.408;-122.974;2022-07-19T03:00:35;13.95;;;6.20;;
46881;SDS011;44112;38.408;-122.974;2022-07-19T03:03:01;14.57;;;6.05;;
46881;SDS011;44112;38.408;-122.974;2022-07-19T03:05:47;13.23;;;6.15;;
46881;SDS011;44112;38.408;-122.974;2022-07-19T03:08:14;14.43;;;6.03;;
46881;SDS011;44112;38.408;-122.974;2022-07-19T03:10:41;14.38;;;6.72;;
46881;SDS011;44112;38.408;-122.974;2022-07-19T03:13:07;15.85;;;6.43;;
46881;SDS011;44112;38.408;-122.974;2022-07-19T03:15:35;19.10;;;6.43;;
46881;SDS011;44112;38.408;-122.974;2022-07-19T03:18:02;13.07;;;6.22;;
46881;SDS011;44112;38.408;-122.974;2022-07-19T03:20:31;15.57;;;6.28;;
46881;SDS011;44112;38.408;-122.974;2022-07-19T03:22:57;16.33;;;5.68;;
46881;SDS011;44112;38.408;-122.974;2022-07-19T03:25:25;15.75;;;6.03;;
46881;SDS011;44112;38.408;-122.974;2022-07-19T03:27:52;14.00;;;5.65;;
46881;SDS011;44112;38.408;-122.974;2022-07-19T03:30:19;19.98;;;6.35;;
46881;SDS011;44112;38.408;-122.974;2022-07-19T03:32:46;15.60;;;6.05;;
46881;SDS011;44112;38.408;-122.974;2022-07-19T03:35:13;15.05;;;6.32;;
46881;SDS011;44112;38.408;-122.974;2022-07-19T03:37:40;15.00;;;5.93;;
46881;SDS011;44112;38.408;-122.974;2022-07-19T03:40:07;15.70;;;6.03;;
46881;SDS011;44112;38.408;-122.974;2022-07-19T03:42:34;16.13;;;6.95;;
46881;SDS011;44112;38.408;-122.974;2022-07-19T03:45:01;35.40;;;12.95;;
46881;SDS011;44112;38.408;-122.974;2022-07-19T03:47:28;40.55;;;25.75;;
46881;SDS011;44112;38.408;-122.974;2022-07-19T03:49:55;43.17;;;28.65;;
46881;SDS011;44112;38.408;-122.974;2022-07-19T03:52:22;41.78;;;26.50;;
46881;SDS011;44112;38.408;-122.974;2022-07-19T03:54:49;36.22;;;24.60;;
46881;SDS011;44112;38.408;-122.974;2022-07-19T03:57:16;32.47;;;21.15;;
46881;SDS011;44112;38.408;-122.974;2022-07-19T03:59:43;31.75;;;20.60;;
46881;SDS011;44112;38.408;-122.974;2022-07-19T04:02:10;26.67;;;19.25;;
46881;SDS011;44112;38.408;-122.974;2022-07-19T04:04:36;27.30;;;17.60;;
46881;SDS011;44112;38.408;-122.974;2022-07-19T04:07:03;26.02;;;15.30;;
46881;SDS011;44112;38.408;-122.974;2022-07-19T04:09:29;24.20;;;15.15;;
46881;SDS011;44112;38.408;-122.974;2022-07-19T04:11:56;24.27;;;15.48;;
46881;SDS011;44112;38.408;-122.974;2022-07-19T04:14:22;24.50;;;14.05;;
46881;SDS011;44112;38.408;-122.974;2022-07-19T04:16:49;20.08;;;12.77;;
46881;SDS011;44112;38.408;-122.974;2022-07-19T04:19:15;18.40;;;11.43;;
46881;SDS011;44112;38.408;-122.974;2022-07-19T04:21:42;20.02;;;11.77;;
46881;SDS011;44112;38.408;-122.974;2022-07-19T04:24:09;19.67;;;11.68;;
46881;SDS011;44112;38.408;-122.974;2022-07-19T04:26:36;18.38;;;12.15;;
46881;SDS011;44112;38.408;-122.974;2022-07-19T04:29:03;18.73;;;11.82;;
46881;SDS011;44112;38.408;-122.974;2022-07-19T04:31:30;24.23;;;11.82;;
46881;SDS011;44112;38.408;-122.974;2022-07-19T04:33:57;16.30;;;10.38;;
46881;SDS011;44112;38.408;-122.974;2022-07-19T04:36:23;17.00;;;11.00;;
46881;SDS011;44112;38.408;-122.974;2022-07-19T04:38:51;16.42;;;10.65;;
46881;SDS011;44112;38.408;-122.974;2022-07-19T04:41:17;16.80;;;9.77;;
46881;SDS011;44112;38.408;-122.974;2022-07-19T04:43:44;19.90;;;10.82;;
46881;SDS011;44112;38.408;-122.974;2022-07-19T04:46:11;18.85;;;10.48;;
46881;SDS011;44112;38.408;-122.974;2022-07-19T04:48:37;16.23;;;10.80;;
46881;SDS011;44112;38.408;-122.974;2022-07-19T04:51:06;17.50;;;10.57;;
46881;SDS011;44112;38.408;-122.974;2022-07-19T04:53:33;16.73;;;9.80;;
46881;SDS011;44112;38.408;-122.974;2022-07-19T04:55:59;14.68;;;10.00;;
46881;SDS011;44112;38.408;-122.974;2022-07-19T04:58:26;15.18;;;8.90;;
46881;SDS011;44112;38.408;-122.974;2022-07-19T05:00:53;12.65;;;8.90;;
46881;SDS011;44112;38.408;-122.974;2022-07-19T05:03:20;16.65;;;8.32;;
46881;SDS011;44112;38.408;-122.974;2022-07-19T05:05:46;14.88;;;8.10;;
46881;SDS011;44112;38.408;-122.974;2022-07-19T05:08:13;15.25;;;8.15;;
46881;SDS011;44112;38.408;-122.974;2022-07-19T05:10:40;14.27;;;6.85;;
46881;SDS011;44112;38.408;-122.974;2022-07-19T05:13:06;13.40;;;7.45;;
46881;SDS011;44112;38.408;-122.974;2022-07-19T05:15:33;15.05;;;7.88;;
46881;SDS011;44112;38.408;-122.974;2022-07-19T05:17:59;13.52;;;7.60;;
46881;SDS011;44112;38.408;-122.974;2022-07-19T05:20:26;13.45;;;8.32;;
46881;SDS011;44112;38.408;-122.974;2022-07-19T05:22:52;12.82;;;7.15;;
46881;SDS011;44112;38.408;-122.974;2022-07-19T05:25:19;9.77;;;6.85;;
46881;SDS011;44112;38.408;-122.974;2022-07-19T05:27:47;12.98;;;7.43;;
46881;SDS011;44112;38.408;-122.974;2022-07-19T05:30:15;13.70;;;7.28;;
46881;SDS011;44112;38.408;-122.974;2022-07-19T05:32:42;13.50;;;7.10;;
46881;SDS011;44112;38.408;-122.974;2022-07-19T05:35:08;12.60;;;7.85;;
46881;SDS011;44112;38.408;-122.974;2022-07-19T05:37:35;12.00;;;6.53;;
46881;SDS011;44112;38.408;-122.974;2022-07-19T05:40:01;12.52;;;7.13;;
46881;SDS011;44112;38.408;-122.974;2022-07-19T05:42:28;11.52;;;6.40;;
46881;SDS011;44112;38.408;-122.974;2022-07-19T05:44:56;12.50;;;6.90;;
46881;SDS011;44112;38.408;-122.974;2022-07-19T05:47:22;12.93;;;6.47;;
46881;SDS011;44112;38.408;-122.974;2022-07-19T05:49:49;12.25;;;6.85;;
46881;SDS011;44112;38.408;-122.974;2022-07-19T05:52:16;11.60;;;6.85;;
46881;SDS011;44112;38.408;-122.974;2022-07-19T05:54:42;11.68;;;6.68;;
46881;SDS011;44112;38.408;-122.974;2022-07-19T05:57:09;12.40;;;6.70;;
46881;SDS011;44112;38.408;-122.974;2022-07-19T05:59:36;9.75;;;5.97;;
46881;SDS011;44112;38.408;-122.974;2022-07-19T06:02:03;10.55;;;5.78;;
46881;SDS011;44112;38.408;-122.974;2022-07-19T06:04:30;10.90;;;6.18;;
46881;SDS011;44112;38.408;-122.974;2022-07-19T06:06:57;11.00;;;6.20;;
46881;SDS011;44112;38.408;-122.974;2022-07-19T06:09:24;11.77;;;5.80;;
46881;SDS011;44112;38.408;-122.974;2022-07-19T06:11:50;11.40;;;6.32;;
46881;SDS011;44112;38.408;-122.974;2022-07-19T06:14:18;11.55;;;6.10;;
46881;SDS011;44112;38.408;-122.974;2022-07-19T06:16:45;11.20;;;5.95;;
46881;SDS011;44112;38.408;-122.974;2022-07-19T06:19:12;13.25;;;6.30;;
46881;SDS011;44112;38.408;-122.974;2022-07-19T06:21:39;11.48;;;6.05;;
46881;SDS011;44112;38.408;-122.974;2022-07-19T06:24:05;13.15;;;6.57;;
46881;SDS011;44112;38.408;-122.974;2022-07-19T06:26:33;12.43;;;6.03;;
46881;SDS011;44112;38.408;-122.974;2022-07-19T06:28:59;11.65;;;6.45;;
46881;SDS011;44112;38.408;-122.974;2022-07-19T06:31:26;13.38;;;6.05;;
46881;SDS011;44112;38.408;-122.974;2022-07-19T06:33:53;11.85;;;6.03;;
46881;SDS011;44112;38.408;-122.974;2022-07-19T06:36:20;11.15;;;6.10;;
46881;SDS011;44112;38.408;-122.974;2022-07-19T06:38:47;10.55;;;5.75;;
46881;SDS011;44112;38.408;-122.974;2022-07-19T06:41:15;12.85;;;6.25;;
46881;SDS011;44112;38.408;-122.974;2022-07-19T06:43:42;14.02;;;6.47;;
46881;SDS011;44112;38.408;-122.974;2022-07-19T06:46:09;15.57;;;6.53;;
46881;SDS011;44112;38.408;-122.974;2022-07-19T06:48:36;14.27;;;6.40;;
46881;SDS011;44112;38.408;-122.974;2022-07-19T06:51:04;15.55;;;6.72;;
46881;SDS011;44112;38.408;-122.974;2022-07-19T06:53:32;14.25;;;5.75;;
46881;SDS011;44112;38.408;-122.974;2022-07-19T06:55:59;14.05;;;6.90;;
46881;SDS011;44112;38.408;-122.974;2022-07-19T06:58:26;13.65;;;5.93;;
46881;SDS011;44112;38.408;-122.974;2022-07-19T07:00:54;11.80;;;6.35;;
46881;SDS011;44112;38.408;-122.974;2022-07-19T07:03:21;14.68;;;6.07;;
46881;SDS011;44112;38.408;-122.974;2022-07-19T07:05:48;13.70;;;5.95;;
46881;SDS011;44112;38.408;-122.974;2022-07-19T07:08:14;13.68;;;6.20;;
46881;SDS011;44112;38.408;-122.974;2022-07-19T07:10:41;15.70;;;6.15;;
46881;SDS011;44112;38.408;-122.974;2022-07-19T07:13:08;12.55;;;5.90;;
46881;SDS011;44112;38.408;-122.974;2022-07-19T07:15:35;14.38;;;6.53;;
46881;SDS011;44112;38.408;-122.974;2022-07-19T07:18:05;14.85;;;6.47;;
46881;SDS011;44112;38.408;-122.974;2022-07-19T07:20:32;15.48;;;7.47;;
46881;SDS011;44112;38.408;-122.974;2022-07-19T07:22:59;14.43;;;6.43;;
46881;SDS011;44112;38.408;-122.974;2022-07-19T07:25:28;15.68;;;6.40;;
46881;SDS011;44112;38.408;-122.974;2022-07-19T07:27:54;14.73;;;6.57;;
46881;SDS011;44112;38.408;-122.974;2022-07-19T07:30:21;13.18;;;6.30;;
46881;SDS011;44112;38.408;-122.974;2022-07-19T07:32:47;14.85;;;6.50;;
46881;SDS011;44112;38.408;-122.974;2022-07-19T07:35:15;13.35;;;6.47;;
46881;SDS011;44112;38.408;-122.974;2022-07-19T07:37:41;13.25;;;6.32;;
46881;SDS011;44112;38.408;-122.974;2022-07-19T07:40:09;16.27;;;6.78;;
46881;SDS011;44112;38.408;-122.974;2022-07-19T07:42:36;13.35;;;6.03;;
46881;SDS011;44112;38.408;-122.974;2022-07-19T07:45:02;15.75;;;6.38;;
46881;SDS011;44112;38.408;-122.974;2022-07-19T07:47:32;14.65;;;6.72;;
46881;SDS011;44112;38.408;-122.974;2022-07-19T07:50:00;13.77;;;6.32;;
46881;SDS011;44112;38.408;-122.974;2022-07-19T07:52:27;16.20;;;7.18;;
46881;SDS011;44112;38.408;-122.974;2022-07-19T07:54:54;14.80;;;6.70;;
46881;SDS011;44112;38.408;-122.974;2022-07-19T07:57:21;17.90;;;7.13;;
46881;SDS011;44112;38.408;-122.974;2022-07-19T07:59:47;20.17;;;7.13;;
46881;SDS011;44112;38.408;-122.974;2022-07-19T08:02:14;19.60;;;6.10;;
46881;SDS011;44112;38.408;-122.974;2022-07-19T08:04:41;21.77;;;7.40;;
46881;SDS011;44112;38.408;-122.974;2022-07-19T08:07:08;16.30;;;7.57;;
46881;SDS011;44112;38.408;-122.974;2022-07-19T08:09:34;14.32;;;6.30;;
46881;SDS011;44112;38.408;-122.974;2022-07-19T08:12:01;15.15;;;6.13;;
46881;SDS011;44112;38.408;-122.974;2022-07-19T08:14:28;14.13;;;6.45;;
46881;SDS011;44112;38.408;-122.974;2022-07-19T08:16:55;14.68;;;7.00;;
46881;SDS011;44112;38.408;-122.974;2022-07-19T08:19:22;14.18;;;6.28;;
46881;SDS011;44112;38.408;-122.974;2022-07-19T08:21:49;13.65;;;6.50;;
46881;SDS011;44112;38.408;-122.974;2022-07-19T08:24:15;16.73;;;6.63;;
46881;SDS011;44112;38.408;-122.974;2022-07-19T08:26:42;16.25;;;6.60;;
46881;SDS011;44112;38.408;-122.974;2022-07-19T08:29:09;15.35;;;6.10;;
46881;SDS011;44112;38.408;-122.974;2022-07-19T08:31:36;17.63;;;6.13;;
46881;SDS011;44112;38.408;-122.974;2022-07-19T08:34:02;15.35;;;6.38;;
46881;SDS011;44112;38.408;-122.974;2022-07-19T08:36:30;14.93;;;6.40;;
46881;SDS011;44112;38.408;-122.974;2022-07-19T08:38:56;14.48;;;6.13;;
46881;SDS011;44112;38.408;-122.974;2022-07-19T08:41:23;15.35;;;6.00;;
46881;SDS011;44112;38.408;-122.974;2022-07-19T08:43:51;14.65;;;6.40;;
46881;SDS011;44112;38.408;-122.974;2022-07-19T08:46:18;16.60;;;6.63;;
46881;SDS011;44112;38.408;-122.974;2022-07-19T08:48:49;13.50;;;6.28;;
46881;SDS011;44112;38.408;-122.974;2022-07-19T08:51:19;16.60;;;6.32;;
46881;SDS011;44112;38.408;-122.974;2022-07-19T08:53:47;16.48;;;6.05;;
46881;SDS011;44112;38.408;-122.974;2022-07-19T08:56:15;15.05;;;6.50;;
46881;SDS011;44112;38.408;-122.974;2022-07-19T08:59:02;17.85;;;6.55;;
46881;SDS011;44112;38.408;-122.974;2022-07-19T09:01:28;14.30;;;6.13;;
46881;SDS011;44112;38.408;-122.974;2022-07-19T09:06:41;15.30;;;6.68;;
46881;SDS011;44112;38.408;-122.974;2022-07-19T09:09:10;15.70;;;6.00;;
46881;SDS011;44112;38.408;-122.974;2022-07-19T09:11:39;15.65;;;6.57;;
46881;SDS011;44112;38.408;-122.974;2022-07-19T09:14:18;13.00;;;6.10;;
46881;SDS011;44112;38.408;-122.974;2022-07-19T09:17:00;13.25;;;6.05;;
46881;SDS011;44112;38.408;-122.974;2022-07-19T09:19:42;13.98;;;6.13;;
46881;SDS011;44112;38.408;-122.974;2022-07-19T09:22:11;15.55;;;6.20;;
46881;SDS011;44112;38.408;-122.974;2022-07-19T09:24:44;14.95;;;6.45;;
46881;SDS011;44112;38.408;-122.974;2022-07-19T09:27:16;12.82;;;5.93;;
46881;SDS011;44112;38.408;-122.974;2022-07-19T09:29:54;13.23;;;5.93;;
46881;SDS011;44112;38.408;-122.974;2022-07-19T09:32:22;16.70;;;5.85;;
46881;SDS011;44112;38.408;-122.974;2022-07-19T09:34:54;12.35;;;5.85;;
46881;SDS011;44112;38.408;-122.974;2022-07-19T09:37:29;13.68;;;6.13;;
46881;SDS011;44112;38.408;-122.974;2022-07-19T09:45:06;13.60;;;5.45;;
46881;SDS011;44112;38.408;-122.974;2022-07-19T09:47:35;13.95;;;6.13;;
46881;SDS011;44112;38.408;-122.974;2022-07-19T09:50:05;13.63;;;5.28;;
46881;SDS011;44112;38.408;-122.974;2022-07-19T09:52:34;14.07;;;6.38;;
46881;SDS011;44112;38.408;-122.974;2022-07-19T09:55:02;12.65;;;6.25;;
46881;SDS011;44112;38.408;-122.974;2022-07-19T09:57:39;12.38;;;5.75;;
46881;SDS011;44112;38.408;-122.974;2022-07-19T10:00:08;12.15;;;5.57;;
46881;SDS011;44112;38.408;-122.974;2022-07-19T10:02:38;12.93;;;6.50;;
46881;SDS011;44112;38.408;-122.974;2022-07-19T10:05:08;14.40;;;5.97;;
46881;SDS011;44112;38.408;-122.974;2022-07-19T10:07:37;10.32;;;5.63;;
46881;SDS011;44112;38.408;-122.974;2022-07-19T10:10:11;12.95;;;5.65;;
46881;SDS011;44112;38.408;-122.974;2022-07-19T10:12:39;11.52;;;5.80;;
46881;SDS011;44112;38.408;-122.974;2022-07-19T10:15:09;12.75;;;5.75;;
46881;SDS011;44112;38.408;-122.974;2022-07-19T10:17:49;12.27;;;6.20;;
46881;SDS011;44112;38.408;-122.974;2022-07-19T10:20:23;14.98;;;6.15;;
46881;SDS011;44112;38.408;-122.974;2022-07-19T10:22:51;13.02;;;5.57;;
46881;SDS011;44112;38.408;-122.974;2022-07-19T10:25:19;12.75;;;5.80;;
46881;SDS011;44112;38.408;-122.974;2022-07-19T10:27:50;11.90;;;5.93;;
46881;SDS011;44112;38.408;-122.974;2022-07-19T10:30:21;12.85;;;5.55;;
46881;SDS011;44112;38.408;-122.974;2022-07-19T10:32:50;13.07;;;5.72;;
46881;SDS011;44112;38.408;-122.974;2022-07-19T10:35:19;12.95;;;5.95;;
46881;SDS011;44112;38.408;-122.974;2022-07-19T10:37:52;13.27;;;5.80;;
46881;SDS011;44112;38.408;-122.974;2022-07-19T10:40:45;15.00;;;5.90;;
46881;SDS011;44112;38.408;-122.974;2022-07-19T10:43:23;12.75;;;5.88;;
46881;SDS011;44112;38.408;-122.974;2022-07-19T10:48:35;15.82;;;5.88;;
46881;SDS011;44112;38.408;-122.974;2022-07-19T10:51:03;14.63;;;6.28;;
46881;SDS011;44112;38.408;-122.974;2022-07-19T10:56:16;12.10;;;5.90;;
46881;SDS011;44112;38.408;-122.974;2022-07-19T10:58:46;13.82;;;5.72;;
46881;SDS011;44112;38.408;-122.974;2022-07-19T11:01:19;13.77;;;5.57;;
46881;SDS011;44112;38.408;-122.974;2022-07-19T11:03:47;12.57;;;5.70;;
46881;SDS011;44112;38.408;-122.974;2022-07-19T11:06:20;12.90;;;5.55;;
46881;SDS011;44112;38.408;-122.974;2022-07-19T11:08:55;12.93;;;6.13;;
46881;SDS011;44112;38.408;-122.974;2022-07-19T11:11:25;11.80;;;5.78;;
46881;SDS011;44112;38.408;-122.974;2022-07-19T11:13:53;16.15;;;6.40;;
46881;SDS011;44112;38.408;-122.974;2022-07-19T11:16:25;12.43;;;5.97;;
46881;SDS011;44112;38.408;-122.974;2022-07-19T11:19:03;12.93;;;5.63;;
46881;SDS011;44112;38.408;-122.974;2022-07-19T11:21:34;12.45;;;5.60;;
46881;SDS011;44112;38.408;-122.974;2022-07-19T11:24:03;16.23;;;5.90;;
46881;SDS011;44112;38.408;-122.974;2022-07-19T11:26:37;12.50;;;5.72;;
46881;SDS011;44112;38.408;-122.974;2022-07-19T11:31:31;14.05;;;6.35;;
46881;SDS011;44112;38.408;-122.974;2022-07-19T11:33:58;12.05;;;5.97;;
46881;SDS011;44112;38.408;-122.974;2022-07-19T11:36:26;14.13;;;5.55;;
46881;SDS011;44112;38.408;-122.974;2022-07-19T11:38:57;12.07;;;5.53;;
46881;SDS011;44112;38.408;-122.974;2022-07-19T11:41:31;13.10;;;5.78;;
46881;SDS011;44112;38.408;-122.974;2022-07-19T11:43:59;11.27;;;5.50;;
46881;SDS011;44112;38.408;-122.974;2022-07-19T11:46:31;11.23;;;5.45;;
46881;SDS011;44112;38.408;-122.974;2022-07-19T11:49:03;12.13;;;5.75;;
46881;SDS011;44112;38.408;-122.974;2022-07-19T11:51:31;13.05;;;6.10;;
46881;SDS011;44112;38.408;-122.974;2022-07-19T11:54:00;14.07;;;6.05;;
46881;SDS011;44112;38.408;-122.974;2022-07-19T11:56:30;13.05;;;5.85;;
46881;SDS011;44112;38.408;-122.974;2022-07-19T11:58:59;10.60;;;5.10;;
46881;SDS011;44112;38.408;-122.974;2022-07-19T12:01:28;12.82;;;5.47;;
46881;SDS011;44112;38.408;-122.974;2022-07-19T12:04:01;12.00;;;5.80;;
46881;SDS011;44112;38.408;-122.974;2022-07-19T12:06:35;10.15;;;5.00;;
46881;SDS011;44112;38.408;-122.974;2022-07-19T12:11:46;11.15;;;5.15;;
46881;SDS011;44112;38.408;-122.974;2022-07-19T12:16:48;11.05;;;5.25;;
46881;SDS011;44112;38.408;-122.974;2022-07-19T12:19:17;9.88;;;4.97;;
46881;SDS011;44112;38.408;-122.974;2022-07-19T12:21:45;10.43;;;4.93;;
46881;SDS011;44112;38.408;-122.974;2022-07-19T12:24:16;12.15;;;4.97;;
46881;SDS011;44112;38.408;-122.974;2022-07-19T12:31:53;10.98;;;5.28;;
46881;SDS011;44112;38.408;-122.974;2022-07-19T12:34:25;12.85;;;5.80;;
46881;SDS011;44112;38.408;-122.974;2022-07-19T12:36:52;11.07;;;5.10;;
46881;SDS011;44112;38.408;-122.974;2022-07-19T12:39:20;10.73;;;5.03;;
46881;SDS011;44112;38.408;-122.974;2022-07-19T12:41:54;10.30;;;4.55;;
46881;SDS011;44112;38.408;-122.974;2022-07-19T12:44:20;11.40;;;5.10;;
46881;SDS011;44112;38.408;-122.974;2022-07-19T12:46:47;9.98;;;4.97;;
46881;SDS011;44112;38.408;-122.974;2022-07-19T12:49:14;10.77;;;4.90;;
46881;SDS011;44112;38.408;-122.974;2022-07-19T12:51:40;12.30;;;5.13;;
46881;SDS011;44112;38.408;-122.974;2022-07-19T12:54:09;10.27;;;4.65;;
46881;SDS011;44112;38.408;-122.974;2022-07-19T12:56:37;9.57;;;4.88;;
46881;SDS011;44112;38.408;-122.974;2022-07-19T12:59:05;9.07;;;4.68;;
46881;SDS011;44112;38.408;-122.974;2022-07-19T13:01:50;9.55;;;4.65;;
46881;SDS011;44112;38.408;-122.974;2022-07-19T13:04:17;8.18;;;4.35;;
46881;SDS011;44112;38.408;-122.974;2022-07-19T13:06:43;9.52;;;4.50;;
46881;SDS011;44112;38.408;-122.974;2022-07-19T13:09:10;9.18;;;4.65;;
46881;SDS011;44112;38.408;-122.974;2022-07-19T13:11:37;9.27;;;4.13;;
46881;SDS011;44112;38.408;-122.974;2022-07-19T13:14:04;9.68;;;4.38;;
46881;SDS011;44112;38.408;-122.974;2022-07-19T13:16:31;10.38;;;5.03;;
46881;SDS011;44112;38.408;-122.974;2022-07-19T13:18:58;12.40;;;5.05;;
46881;SDS011;44112;38.408;-122.974;2022-07-19T13:21:25;9.00;;;4.60;;
46881;SDS011;44112;38.408;-122.974;2022-07-19T13:23:52;12.90;;;5.47;;
46881;SDS011;44112;38.408;-122.974;2022-07-19T13:26:18;11.20;;;5.05;;
46881;SDS011;44112;38.408;-122.974;2022-07-19T13:28:45;10.98;;;5.15;;
46881;SDS011;44112;38.408;-122.974;2022-07-19T13:31:11;10.85;;;5.07;;
46881;SDS011;44112;38.408;-122.974;2022-07-19T13:33:38;12.48;;;5.07;;
46881;SDS011;44112;38.408;-122.974;2022-07-19T13:36:05;11.27;;;4.97;;
46881;SDS011;44112;38.408;-122.974;2022-07-19T13:38:31;10.80;;;4.80;;
46881;SDS011;44112;38.408;-122.974;2022-07-19T13:40:58;12.77;;;4.90;;
46881;SDS011;44112;38.408;-122.974;2022-07-19T13:43:25;12.40;;;4.65;;
46881;SDS011;44112;38.408;-122.974;2022-07-19T13:45:51;10.85;;;4.72;;
46881;SDS011;44112;38.408;-122.974;2022-07-19T13:48:18;13.05;;;5.13;;
46881;SDS011;44112;38.408;-122.974;2022-07-19T13:51:04;11.70;;;5.03;;
46881;SDS011;44112;38.408;-122.974;2022-07-19T13:53:32;11.05;;;4.90;;
46881;SDS011;44112;38.408;-122.974;2022-07-19T13:58:44;9.25;;;4.15;;
46881;SDS011;44112;38.408;-122.974;2022-07-19T14:01:11;11.57;;;4.78;;
46881;SDS011;44112;38.408;-122.974;2022-07-19T14:03:38;9.43;;;4.50;;
46881;SDS011;44112;38.408;-122.974;2022-07-19T14:06:05;10.52;;;4.55;;
46881;SDS011;44112;38.408;-122.974;2022-07-19T14:08:32;10.10;;;4.20;;
46881;SDS011;44112;38.408;-122.974;2022-07-19T14:10:59;10.52;;;5.00;;
46881;SDS011;44112;38.408;-122.974;2022-07-19T14:13:28;10.02;;;4.45;;
46881;SDS011;44112;38.408;-122.974;2022-07-19T14:15:55;12.13;;;4.47;;
46881;SDS011;44112;38.408;-122.974;2022-07-19T14:18:22;9.43;;;4.20;;
46881;SDS011;44112;38.408;-122.974;2022-07-19T14:20:49;9.23;;;4.28;;
46881;SDS011;44112;38.408;-122.974;2022-07-19T14:23:15;8.32;;;3.95;;
46881;SDS011;44112;38.408;-122.974;2022-07-19T14:25:42;10.13;;;4.00;;
46881;SDS011;44112;38.408;-122.974;2022-07-19T14:28:09;9.00;;;4.35;;
46881;SDS011;44112;38.408;-122.974;2022-07-19T14:30:36;7.25;;;4.00;;